Giard, Iowa
Current Conditions -  °F | °C
As of 6:15 PM on Sunday 23 Nov 2014 (Local Time) from KPDC Reporting Station
Drizzle Drizzle  
Wind Chill: 47°   Ceiling: 700
Heat Index: 47°   Visibility: 10mi
Dew Point: 46°   Wind: 0mph
Humidity: 95%   Direction: NA
Pressure: 29.3"   Gusts: NA
Location:  43.0056°N, 91.2139°W
Report Text: KPDC 240015Z AUTO 00000KT 10SM DZ OVC007 08/08 A2930 RMK AO2 T00840076
Loading
Personal Weather Stations






























Interactive Weather Map New forecast layout! Learn more

10-Day Weather Forecast

Advertisements
Track Severe Weather on mobile